sensor_id;sensor_type;location;lat;lon;timestamp;P1;durP1;ratioP1;P2;durP2;ratioP2
31680;SDS011;18281;51.364;9.566;2023-06-22T00:06:10;8.98;;;7.78;;
31680;SDS011;18281;51.364;9.566;2023-06-22T00:26:40;10.55;;;9.00;;
31680;SDS011;18281;51.364;9.566;2023-06-22T00:29:13;11.50;;;9.05;;
31680;SDS011;18281;51.364;9.566;2023-06-22T00:32:08;8.95;;;8.05;;
31680;SDS011;18281;51.364;9.566;2023-06-22T02:55:27;6.93;;;5.18;;
31680;SDS011;18281;51.364;9.566;2023-06-22T02:58:11;10.27;;;6.25;;
31680;SDS011;18281;51.364;9.566;2023-06-22T03:03:49;8.48;;;6.03;;
31680;SDS011;18281;51.364;9.566;2023-06-22T03:13:24;9.25;;;6.25;;
31680;SDS011;18281;51.364;9.566;2023-06-22T03:15:52;6.10;;;5.50;;
31680;SDS011;18281;51.364;9.566;2023-06-22T03:23:04;5.67;;;4.83;;
31680;SDS011;18281;51.364;9.566;2023-06-22T03:26:28;5.30;;;4.38;;
31680;SDS011;18281;51.364;9.566;2023-06-22T03:43:15;6.38;;;4.95;;
31680;SDS011;18281;51.364;9.566;2023-06-22T04:14:42;5.45;;;4.93;;
31680;SDS011;18281;51.364;9.566;2023-06-22T04:35:03;6.53;;;4.72;;
31680;SDS011;18281;51.364;9.566;2023-06-22T04:39:57;8.10;;;4.88;;
31680;SDS011;18281;51.364;9.566;2023-06-22T04:42:28;9.45;;;5.20;;
31680;SDS011;18281;51.364;9.566;2023-06-22T04:44:53;7.95;;;5.65;;
31680;SDS011;18281;51.364;9.566;2023-06-22T04:47:23;6.13;;;5.53;;
31680;SDS011;18281;51.364;9.566;2023-06-22T04:49:48;13.98;;;5.43;;
31680;SDS011;18281;51.364;9.566;2023-06-22T04:52:14;7.43;;;5.68;;
31680;SDS011;18281;51.364;9.566;2023-06-22T04:54:42;7.07;;;5.03;;
31680;SDS011;18281;51.364;9.566;2023-06-22T04:57:12;5.72;;;5.13;;
31680;SDS011;18281;51.364;9.566;2023-06-22T04:59:38;9.70;;;4.95;;
31680;SDS011;18281;51.364;9.566;2023-06-22T05:02:06;5.47;;;4.63;;
31680;SDS011;18281;51.364;9.566;2023-06-22T05:04:32;6.93;;;5.22;;
31680;SDS011;18281;51.364;9.566;2023-06-22T05:07:01;6.97;;;4.88;;
31680;SDS011;18281;51.364;9.566;2023-06-22T05:09:27;8.85;;;4.95;;
31680;SDS011;18281;51.364;9.566;2023-06-22T05:11:53;5.80;;;5.15;;
31680;SDS011;18281;51.364;9.566;2023-06-22T05:14:18;6.72;;;4.85;;
31680;SDS011;18281;51.364;9.566;2023-06-22T05:16:44;7.32;;;5.00;;
31680;SDS011;18281;51.364;9.566;2023-06-22T05:19:10;5.75;;;5.18;;
31680;SDS011;18281;51.364;9.566;2023-06-22T05:21:36;6.88;;;4.88;;
31680;SDS011;18281;51.364;9.566;2023-06-22T05:24:02;7.45;;;4.82;;
31680;SDS011;18281;51.364;9.566;2023-06-22T05:26:34;6.63;;;4.88;;
31680;SDS011;18281;51.364;9.566;2023-06-22T05:29:00;10.00;;;5.72;;
31680;SDS011;18281;51.364;9.566;2023-06-22T05:31:27;8.38;;;4.97;;
31680;SDS011;18281;51.364;9.566;2023-06-22T05:36:38;5.63;;;5.10;;
31680;SDS011;18281;51.364;9.566;2023-06-22T05:39:13;7.30;;;4.85;;
31680;SDS011;18281;51.364;9.566;2023-06-22T05:41:39;6.63;;;5.53;;
31680;SDS011;18281;51.364;9.566;2023-06-22T05:44:05;9.45;;;6.28;;
31680;SDS011;18281;51.364;9.566;2023-06-22T05:51:34;6.13;;;5.47;;
31680;SDS011;18281;51.364;9.566;2023-06-22T05:54:00;14.60;;;6.20;;
31680;SDS011;18281;51.364;9.566;2023-06-22T05:56:25;7.20;;;6.15;;
31680;SDS011;18281;51.364;9.566;2023-06-22T05:58:50;7.13;;;5.35;;
31680;SDS011;18281;51.364;9.566;2023-06-22T06:01:16;6.47;;;5.10;;
31680;SDS011;18281;51.364;9.566;2023-06-22T06:03:41;5.88;;;5.28;;
31680;SDS011;18281;51.364;9.566;2023-06-22T06:06:07;6.47;;;5.25;;
31680;SDS011;18281;51.364;9.566;2023-06-22T06:08:33;7.30;;;4.90;;
31680;SDS011;18281;51.364;9.566;2023-06-22T06:10:58;5.88;;;4.80;;
31680;SDS011;18281;51.364;9.566;2023-06-22T06:13:23;5.95;;;5.35;;
31680;SDS011;18281;51.364;9.566;2023-06-22T06:15:49;6.45;;;5.15;;
31680;SDS011;18281;51.364;9.566;2023-06-22T06:18:16;5.85;;;5.20;;
31680;SDS011;18281;51.364;9.566;2023-06-22T06:20:42;7.38;;;5.93;;
31680;SDS011;18281;51.364;9.566;2023-06-22T06:23:07;8.25;;;5.57;;
31680;SDS011;18281;51.364;9.566;2023-06-22T06:25:33;5.47;;;4.97;;
31680;SDS011;18281;51.364;9.566;2023-06-22T06:27:58;6.25;;;5.30;;
31680;SDS011;18281;51.364;9.566;2023-06-22T06:30:23;6.88;;;5.40;;
31680;SDS011;18281;51.364;9.566;2023-06-22T06:32:49;5.88;;;5.25;;
31680;SDS011;18281;51.364;9.566;2023-06-22T06:35:15;12.38;;;5.97;;
31680;SDS011;18281;51.364;9.566;2023-06-22T06:37:44;10.07;;;5.07;;
31680;SDS011;18281;51.364;9.566;2023-06-22T06:40:14;7.40;;;5.80;;
31680;SDS011;18281;51.364;9.566;2023-06-22T06:42:41;6.88;;;6.07;;
31680;SDS011;18281;51.364;9.566;2023-06-22T06:45:09;8.23;;;5.75;;
31680;SDS011;18281;51.364;9.566;2023-06-22T06:47:42;6.78;;;5.78;;
31680;SDS011;18281;51.364;9.566;2023-06-22T06:50:08;6.65;;;5.80;;
31680;SDS011;18281;51.364;9.566;2023-06-22T06:52:34;9.68;;;6.25;;
31680;SDS011;18281;51.364;9.566;2023-06-22T06:55:00;7.68;;;6.82;;
31680;SDS011;18281;51.364;9.566;2023-06-22T06:57:25;6.78;;;6.10;;
31680;SDS011;18281;51.364;9.566;2023-06-22T06:59:53;6.32;;;5.60;;
31680;SDS011;18281;51.364;9.566;2023-06-22T07:02:20;8.75;;;5.90;;
31680;SDS011;18281;51.364;9.566;2023-06-22T07:04:46;8.38;;;6.10;;
31680;SDS011;18281;51.364;9.566;2023-06-22T07:07:11;6.88;;;5.80;;
31680;SDS011;18281;51.364;9.566;2023-06-22T07:09:37;8.15;;;5.93;;
31680;SDS011;18281;51.364;9.566;2023-06-22T07:12:02;6.00;;;5.47;;
31680;SDS011;18281;51.364;9.566;2023-06-22T07:14:28;7.35;;;6.65;;
31680;SDS011;18281;51.364;9.566;2023-06-22T07:16:53;6.50;;;5.50;;
31680;SDS011;18281;51.364;9.566;2023-06-22T07:19:25;7.82;;;6.88;;
31680;SDS011;18281;51.364;9.566;2023-06-22T07:21:54;9.50;;;6.80;;
31680;SDS011;18281;51.364;9.566;2023-06-22T07:28:24;6.50;;;5.90;;
31680;SDS011;18281;51.364;9.566;2023-06-22T07:30:31;7.88;;;6.10;;
31680;SDS011;18281;51.364;9.566;2023-06-22T07:32:58;10.05;;;6.65;;
31680;SDS011;18281;51.364;9.566;2023-06-22T07:35:29;7.57;;;5.85;;
31680;SDS011;18281;51.364;9.566;2023-06-22T07:37:55;6.82;;;5.70;;
31680;SDS011;18281;51.364;9.566;2023-06-22T07:40:20;7.88;;;6.05;;
31680;SDS011;18281;51.364;9.566;2023-06-22T07:42:46;9.52;;;6.45;;
31680;SDS011;18281;51.364;9.566;2023-06-22T07:45:13;6.88;;;5.93;;
31680;SDS011;18281;51.364;9.566;2023-06-22T07:47:38;6.72;;;6.05;;
31680;SDS011;18281;51.364;9.566;2023-06-22T07:50:04;7.22;;;6.30;;
31680;SDS011;18281;51.364;9.566;2023-06-22T07:52:30;7.53;;;5.63;;
31680;SDS011;18281;51.364;9.566;2023-06-22T07:54:56;8.63;;;6.18;;
31680;SDS011;18281;51.364;9.566;2023-06-22T07:57:21;8.38;;;6.15;;
31680;SDS011;18281;51.364;9.566;2023-06-22T07:59:47;8.45;;;5.70;;
31680;SDS011;18281;51.364;9.566;2023-06-22T08:02:12;6.78;;;5.85;;
31680;SDS011;18281;51.364;9.566;2023-06-22T08:04:38;8.27;;;6.05;;
31680;SDS011;18281;51.364;9.566;2023-06-22T08:07:04;13.45;;;6.07;;
31680;SDS011;18281;51.364;9.566;2023-06-22T08:09:30;10.80;;;5.55;;
31680;SDS011;18281;51.364;9.566;2023-06-22T08:11:57;8.52;;;6.13;;
31680;SDS011;18281;51.364;9.566;2023-06-22T08:14:23;6.85;;;6.15;;
31680;SDS011;18281;51.364;9.566;2023-06-22T08:16:50;8.82;;;5.97;;
31680;SDS011;18281;51.364;9.566;2023-06-22T08:19:15;9.02;;;5.68;;
31680;SDS011;18281;51.364;9.566;2023-06-22T08:21:41;6.40;;;5.80;;
31680;SDS011;18281;51.364;9.566;2023-06-22T08:24:06;10.45;;;6.30;;
31680;SDS011;18281;51.364;9.566;2023-06-22T08:26:32;6.28;;;5.50;;
31680;SDS011;18281;51.364;9.566;2023-06-22T08:29:01;7.28;;;6.20;;
31680;SDS011;18281;51.364;9.566;2023-06-22T08:31:27;6.82;;;5.97;;
31680;SDS011;18281;51.364;9.566;2023-06-22T08:33:52;6.15;;;5.55;;
31680;SDS011;18281;51.364;9.566;2023-06-22T08:36:17;9.93;;;5.65;;
31680;SDS011;18281;51.364;9.566;2023-06-22T08:38:43;6.95;;;5.70;;
31680;SDS011;18281;51.364;9.566;2023-06-22T08:41:09;6.60;;;5.55;;
31680;SDS011;18281;51.364;9.566;2023-06-22T08:43:34;8.32;;;6.00;;
31680;SDS011;18281;51.364;9.566;2023-06-22T08:46:00;6.88;;;6.03;;
31680;SDS011;18281;51.364;9.566;2023-06-22T08:48:27;6.35;;;5.40;;
31680;SDS011;18281;51.364;9.566;2023-06-22T08:50:53;6.30;;;5.70;;
31680;SDS011;18281;51.364;9.566;2023-06-22T08:53:18;7.82;;;6.03;;
31680;SDS011;18281;51.364;9.566;2023-06-22T08:55:43;8.65;;;5.32;;
31680;SDS011;18281;51.364;9.566;2023-06-22T08:58:10;8.93;;;5.93;;
31680;SDS011;18281;51.364;9.566;2023-06-22T09:00:35;6.40;;;5.80;;
31680;SDS011;18281;51.364;9.566;2023-06-22T09:03:00;6.03;;;5.38;;
31680;SDS011;18281;51.364;9.566;2023-06-22T09:05:26;6.38;;;5.32;;
31680;SDS011;18281;51.364;9.566;2023-06-22T09:07:51;6.32;;;5.57;;
31680;SDS011;18281;51.364;9.566;2023-06-22T09:10:17;7.47;;;5.25;;
31680;SDS011;18281;51.364;9.566;2023-06-22T09:12:43;7.10;;;5.90;;
31680;SDS011;18281;51.364;9.566;2023-06-22T09:15:08;5.50;;;5.03;;
31680;SDS011;18281;51.364;9.566;2023-06-22T09:17:35;5.85;;;5.32;;
31680;SDS011;18281;51.364;9.566;2023-06-22T09:20:01;7.75;;;5.80;;
31680;SDS011;18281;51.364;9.566;2023-06-22T09:22:27;6.10;;;5.50;;
31680;SDS011;18281;51.364;9.566;2023-06-22T09:24:56;8.48;;;5.70;;
31680;SDS011;18281;51.364;9.566;2023-06-22T09:27:21;7.18;;;5.30;;
31680;SDS011;18281;51.364;9.566;2023-06-22T09:29:47;7.10;;;5.50;;
31680;SDS011;18281;51.364;9.566;2023-06-22T09:32:13;6.13;;;5.60;;
31680;SDS011;18281;51.364;9.566;2023-06-22T09:34:38;7.25;;;5.47;;
31680;SDS011;18281;51.364;9.566;2023-06-22T09:37:04;6.35;;;5.72;;
31680;SDS011;18281;51.364;9.566;2023-06-22T09:39:29;7.35;;;5.90;;
31680;SDS011;18281;51.364;9.566;2023-06-22T09:41:55;7.55;;;5.57;;
31680;SDS011;18281;51.364;9.566;2023-06-22T09:44:20;7.63;;;5.15;;
31680;SDS011;18281;51.364;9.566;2023-06-22T09:46:46;12.82;;;6.38;;
31680;SDS011;18281;51.364;9.566;2023-06-22T09:49:11;6.30;;;5.80;;
31680;SDS011;18281;51.364;9.566;2023-06-22T09:51:36;8.73;;;5.68;;
31680;SDS011;18281;51.364;9.566;2023-06-22T09:54:02;7.05;;;5.55;;
31680;SDS011;18281;51.364;9.566;2023-06-22T09:56:27;7.40;;;5.70;;
31680;SDS011;18281;51.364;9.566;2023-06-22T09:58:54;6.05;;;5.18;;
31680;SDS011;18281;51.364;9.566;2023-06-22T10:01:19;6.38;;;5.80;;
31680;SDS011;18281;51.364;9.566;2023-06-22T10:03:45;5.82;;;5.25;;
31680;SDS011;18281;51.364;9.566;2023-06-22T10:06:11;7.95;;;5.53;;
31680;SDS011;18281;51.364;9.566;2023-06-22T10:08:36;6.38;;;5.78;;
31680;SDS011;18281;51.364;9.566;2023-06-22T10:11:02;8.15;;;6.05;;
31680;SDS011;18281;51.364;9.566;2023-06-22T10:13:28;7.85;;;6.25;;
31680;SDS011;18281;51.364;9.566;2023-06-22T10:15:54;6.50;;;5.78;;
31680;SDS011;18281;51.364;9.566;2023-06-22T10:18:19;7.40;;;5.53;;
31680;SDS011;18281;51.364;9.566;2023-06-22T10:20:49;6.78;;;5.75;;
31680;SDS011;18281;51.364;9.566;2023-06-22T10:23:18;6.22;;;5.53;;
31680;SDS011;18281;51.364;9.566;2023-06-22T10:25:44;6.35;;;5.63;;
31680;SDS011;18281;51.364;9.566;2023-06-22T10:28:10;6.55;;;5.80;;
31680;SDS011;18281;51.364;9.566;2023-06-22T10:30:35;6.65;;;5.90;;
31680;SDS011;18281;51.364;9.566;2023-06-22T10:33:01;6.18;;;5.57;;
31680;SDS011;18281;51.364;9.566;2023-06-22T10:35:26;6.63;;;5.82;;
31680;SDS011;18281;51.364;9.566;2023-06-22T10:37:52;6.47;;;5.60;;
31680;SDS011;18281;51.364;9.566;2023-06-22T10:40:17;6.65;;;5.32;;
31680;SDS011;18281;51.364;9.566;2023-06-22T10:42:43;7.35;;;5.35;;
31680;SDS011;18281;51.364;9.566;2023-06-22T10:45:09;6.43;;;5.78;;
31680;SDS011;18281;51.364;9.566;2023-06-22T10:47:35;6.18;;;5.57;;
31680;SDS011;18281;51.364;9.566;2023-06-22T10:50:01;8.52;;;5.32;;
31680;SDS011;18281;51.364;9.566;2023-06-22T10:52:27;5.97;;;5.47;;
31680;SDS011;18281;51.364;9.566;2023-06-22T10:54:52;6.07;;;5.47;;
31680;SDS011;18281;51.364;9.566;2023-06-22T10:57:17;8.27;;;5.10;;
31680;SDS011;18281;51.364;9.566;2023-06-22T10:59:43;6.28;;;5.68;;
31680;SDS011;18281;51.364;9.566;2023-06-22T11:02:08;5.85;;;5.35;;
31680;SDS011;18281;51.364;9.566;2023-06-22T11:04:34;8.23;;;6.20;;
31680;SDS011;18281;51.364;9.566;2023-06-22T11:07:00;6.63;;;5.13;;
31680;SDS011;18281;51.364;9.566;2023-06-22T11:09:25;7.75;;;5.68;;
31680;SDS011;18281;51.364;9.566;2023-06-22T11:11:51;5.53;;;5.03;;
31680;SDS011;18281;51.364;9.566;2023-06-22T11:14:20;6.57;;;5.95;;
31680;SDS011;18281;51.364;9.566;2023-06-22T11:16:45;6.30;;;5.70;;
31680;SDS011;18281;51.364;9.566;2023-06-22T11:19:11;5.63;;;5.13;;
31680;SDS011;18281;51.364;9.566;2023-06-22T11:21:37;6.90;;;5.45;;
31680;SDS011;18281;51.364;9.566;2023-06-22T11:24:02;5.85;;;5.10;;
31680;SDS011;18281;51.364;9.566;2023-06-22T11:26:28;6.10;;;5.53;;
31680;SDS011;18281;51.364;9.566;2023-06-22T11:28:53;11.38;;;5.80;;
31680;SDS011;18281;51.364;9.566;2023-06-22T11:31:18;5.85;;;5.35;;
31680;SDS011;18281;51.364;9.566;2023-06-22T11:33:44;6.38;;;5.60;;
31680;SDS011;18281;51.364;9.566;2023-06-22T11:36:13;5.80;;;5.13;;
31680;SDS011;18281;51.364;9.566;2023-06-22T11:38:39;6.43;;;5.50;;
31680;SDS011;18281;51.364;9.566;2023-06-22T11:41:05;7.00;;;5.57;;
31680;SDS011;18281;51.364;9.566;2023-06-22T11:43:31;6.47;;;5.20;;
31680;SDS011;18281;51.364;9.566;2023-06-22T11:45:56;7.07;;;5.13;;
31680;SDS011;18281;51.364;9.566;2023-06-22T11:48:23;8.20;;;5.10;;
31680;SDS011;18281;51.364;9.566;2023-06-22T11:50:49;5.63;;;5.13;;
31680;SDS011;18281;51.364;9.566;2023-06-22T11:53:14;5.32;;;4.82;;
31680;SDS011;18281;51.364;9.566;2023-06-22T11:55:41;6.13;;;4.68;;
31680;SDS011;18281;51.364;9.566;2023-06-22T11:58:07;7.68;;;4.93;;
31680;SDS011;18281;51.364;9.566;2023-06-22T12:00:33;6.65;;;4.85;;
31680;SDS011;18281;51.364;9.566;2023-06-22T12:02:58;5.72;;;4.50;;
31680;SDS011;18281;51.364;9.566;2023-06-22T12:05:24;5.75;;;3.80;;
31680;SDS011;18281;51.364;9.566;2023-06-22T12:07:49;5.38;;;4.63;;
31680;SDS011;18281;51.364;9.566;2023-06-22T12:10:15;4.85;;;4.20;;
31680;SDS011;18281;51.364;9.566;2023-06-22T12:12:41;6.05;;;4.70;;
31680;SDS011;18281;51.364;9.566;2023-06-22T12:15:09;5.70;;;4.00;;
31680;SDS011;18281;51.364;9.566;2023-06-22T12:17:35;4.88;;;4.45;;
31680;SDS011;18281;51.364;9.566;2023-06-22T12:20:01;6.57;;;4.55;;
31680;SDS011;18281;51.364;9.566;2023-06-22T12:22:30;5.72;;;4.60;;
31680;SDS011;18281;51.364;9.566;2023-06-22T12:24:57;4.60;;;4.15;;
31680;SDS011;18281;51.364;9.566;2023-06-22T12:27:25;5.00;;;4.50;;
31680;SDS011;18281;51.364;9.566;2023-06-22T12:29:53;4.78;;;4.38;;
31680;SDS011;18281;51.364;9.566;2023-06-22T12:32:22;5.07;;;4.40;;
31680;SDS011;18281;51.364;9.566;2023-06-22T12:34:47;4.60;;;4.20;;
31680;SDS011;18281;51.364;9.566;2023-06-22T12:37:12;6.65;;;4.80;;
31680;SDS011;18281;51.364;9.566;2023-06-22T12:39:39;5.55;;;4.53;;
31680;SDS011;18281;51.364;9.566;2023-06-22T12:42:05;5.20;;;4.70;;
31680;SDS011;18281;51.364;9.566;2023-06-22T12:44:33;5.22;;;4.72;;
31680;SDS011;18281;51.364;9.566;2023-06-22T12:46:59;4.82;;;4.43;;
31680;SDS011;18281;51.364;9.566;2023-06-22T12:49:24;6.82;;;4.95;;
31680;SDS011;18281;51.364;9.566;2023-06-22T12:51:50;6.97;;;4.50;;
31680;SDS011;18281;51.364;9.566;2023-06-22T12:54:15;5.32;;;4.57;;
31680;SDS011;18281;51.364;9.566;2023-06-22T12:56:40;7.15;;;4.78;;
31680;SDS011;18281;51.364;9.566;2023-06-22T12:59:08;7.67;;;4.57;;
31680;SDS011;18281;51.364;9.566;2023-06-22T13:01:34;7.20;;;4.95;;
31680;SDS011;18281;51.364;9.566;2023-06-22T13:03:59;6.82;;;5.18;;
31680;SDS011;18281;51.364;9.566;2023-06-22T13:10:00;4.68;;;4.28;;
31680;SDS011;18281;51.364;9.566;2023-06-22T13:12:26;6.28;;;4.97;;
31680;SDS011;18281;51.364;9.566;2023-06-22T13:14:51;6.93;;;4.45;;
31680;SDS011;18281;51.364;9.566;2023-06-22T13:17:16;5.78;;;5.13;;
31680;SDS011;18281;51.364;9.566;2023-06-22T13:19:42;5.38;;;4.88;;
31680;SDS011;18281;51.364;9.566;2023-06-22T13:22:25;5.85;;;4.40;;
31680;SDS011;18281;51.364;9.566;2023-06-22T13:25:09;6.43;;;5.20;;
31680;SDS011;18281;51.364;9.566;2023-06-22T13:27:38;9.13;;;5.00;;
31680;SDS011;18281;51.364;9.566;2023-06-22T13:30:04;6.18;;;5.55;;
31680;SDS011;18281;51.364;9.566;2023-06-22T13:32:30;5.10;;;4.60;;
31680;SDS011;18281;51.364;9.566;2023-06-22T13:34:56;9.30;;;5.20;;
31680;SDS011;18281;51.364;9.566;2023-06-22T13:37:21;5.80;;;4.97;;
31680;SDS011;18281;51.364;9.566;2023-06-22T13:39:46;8.00;;;4.78;;
31680;SDS011;18281;51.364;9.566;2023-06-22T13:42:12;5.78;;;5.20;;
31680;SDS011;18281;51.364;9.566;2023-06-22T13:44:37;6.25;;;4.82;;
31680;SDS011;18281;51.364;9.566;2023-06-22T13:47:03;6.10;;;5.05;;
31680;SDS011;18281;51.364;9.566;2023-06-22T13:49:29;5.88;;;5.28;;
31680;SDS011;18281;51.364;9.566;2023-06-22T13:51:55;7.35;;;5.53;;
31680;SDS011;18281;51.364;9.566;2023-06-22T13:54:20;8.40;;;5.38;;
31680;SDS011;18281;51.364;9.566;2023-06-22T13:56:46;6.55;;;5.57;;
31680;SDS011;18281;51.364;9.566;2023-06-22T13:59:11;5.70;;;5.20;;
31680;SDS011;18281;51.364;9.566;2023-06-22T14:01:37;5.70;;;4.88;;
31680;SDS011;18281;51.364;9.566;2023-06-22T14:04:04;5.72;;;5.03;;
31680;SDS011;18281;51.364;9.566;2023-06-22T14:06:30;6.85;;;5.22;;
31680;SDS011;18281;51.364;9.566;2023-06-22T14:08:55;7.60;;;5.38;;
31680;SDS011;18281;51.364;9.566;2023-06-22T14:11:21;6.53;;;5.10;;
31680;SDS011;18281;51.364;9.566;2023-06-22T14:13:46;6.90;;;5.45;;
31680;SDS011;18281;51.364;9.566;2023-06-22T14:16:12;7.60;;;5.10;;
31680;SDS011;18281;51.364;9.566;2023-06-22T14:18:37;6.43;;;4.80;;
31680;SDS011;18281;51.364;9.566;2023-06-22T14:21:02;7.63;;;5.05;;
31680;SDS011;18281;51.364;9.566;2023-06-22T14:23:28;8.93;;;5.50;;
31680;SDS011;18281;51.364;9.566;2023-06-22T14:25:53;6.00;;;5.40;;
31680;SDS011;18281;51.364;9.566;2023-06-22T14:28:19;7.63;;;5.95;;
31680;SDS011;18281;51.364;9.566;2023-06-22T14:30:44;7.15;;;5.47;;
31680;SDS011;18281;51.364;9.566;2023-06-22T14:33:09;7.05;;;5.20;;
31680;SDS011;18281;51.364;9.566;2023-06-22T14:35:35;6.97;;;5.22;;
31680;SDS011;18281;51.364;9.566;2023-06-22T14:38:00;6.20;;;5.60;;
31680;SDS011;18281;51.364;9.566;2023-06-22T14:40:26;6.10;;;5.45;;
31680;SDS011;18281;51.364;9.566;2023-06-22T14:42:51;12.15;;;4.30;;
31680;SDS011;18281;51.364;9.566;2023-06-22T14:45:16;8.35;;;3.30;;
31680;SDS011;18281;51.364;9.566;2023-06-22T14:47:42;13.00;;;3.60;;
31680;SDS011;18281;51.364;9.566;2023-06-22T14:50:07;14.02;;;3.63;;
31680;SDS011;18281;51.364;9.566;2023-06-22T14:52:32;8.70;;;3.28;;
31680;SDS011;18281;51.364;9.566;2023-06-22T15:21:58;9.57;;;3.15;;
31680;SDS011;18281;51.364;9.566;2023-06-22T15:24:24;10.55;;;3.75;;
31680;SDS011;18281;51.364;9.566;2023-06-22T15:26:50;6.53;;;3.40;;
31680;SDS011;18281;51.364;9.566;2023-06-22T15:29:15;8.07;;;3.30;;
31680;SDS011;18281;51.364;9.566;2023-06-22T15:31:41;9.20;;;3.33;;
31680;SDS011;18281;51.364;9.566;2023-06-22T15:34:16;9.73;;;2.90;;
31680;SDS011;18281;51.364;9.566;2023-06-22T15:36:42;10.13;;;3.40;;
31680;SDS011;18281;51.364;9.566;2023-06-22T15:39:07;7.40;;;3.15;;
31680;SDS011;18281;51.364;9.566;2023-06-22T15:41:33;5.78;;;2.60;;
31680;SDS011;18281;51.364;9.566;2023-06-22T15:43:58;7.10;;;2.92;;
31680;SDS011;18281;51.364;9.566;2023-06-22T15:46:23;9.98;;;3.20;;
31680;SDS011;18281;51.364;9.566;2023-06-22T15:48:49;6.55;;;3.17;;
31680;SDS011;18281;51.364;9.566;2023-06-22T15:51:14;9.00;;;2.80;;
31680;SDS011;18281;51.364;9.566;2023-06-22T15:53:40;8.70;;;2.90;;
31680;SDS011;18281;51.364;9.566;2023-06-22T15:56:05;7.18;;;3.15;;
31680;SDS011;18281;51.364;9.566;2023-06-22T16:01:45;7.32;;;3.47;;
31680;SDS011;18281;51.364;9.566;2023-06-22T16:04:10;4.32;;;3.22;;
31680;SDS011;18281;51.364;9.566;2023-06-22T16:06:36;5.07;;;2.90;;
31680;SDS011;18281;51.364;9.566;2023-06-22T16:09:01;8.45;;;2.95;;
31680;SDS011;18281;51.364;9.566;2023-06-22T16:11:28;5.60;;;2.72;;
31680;SDS011;18281;51.364;9.566;2023-06-22T16:13:54;4.57;;;3.30;;
31680;SDS011;18281;51.364;9.566;2023-06-22T16:16:22;6.07;;;3.90;;
31680;SDS011;18281;51.364;9.566;2023-06-22T16:18:50;6.68;;;4.18;;
31680;SDS011;18281;51.364;9.566;2023-06-22T16:21:15;9.23;;;4.18;;
31680;SDS011;18281;51.364;9.566;2023-06-22T16:23:53;7.35;;;3.95;;
31680;SDS011;18281;51.364;9.566;2023-06-22T16:33:10;8.60;;;3.37;;
31680;SDS011;18281;51.364;9.566;2023-06-22T16:36:16;5.32;;;3.35;;
31680;SDS011;18281;51.364;9.566;2023-06-22T16:51:09;5.35;;;2.85;;
31680;SDS011;18281;51.364;9.566;2023-06-22T16:53:34;4.40;;;2.88;;
31680;SDS011;18281;51.364;9.566;2023-06-22T16:56:00;9.52;;;2.92;;
31680;SDS011;18281;51.364;9.566;2023-06-22T16:58:25;5.28;;;2.90;;
31680;SDS011;18281;51.364;9.566;2023-06-22T17:00:55;3.80;;;3.00;;
31680;SDS011;18281;51.364;9.566;2023-06-22T17:06:25;5.47;;;3.00;;
31680;SDS011;18281;51.364;9.566;2023-06-22T17:12:16;4.30;;;3.17;;
31680;SDS011;18281;51.364;9.566;2023-06-22T17:14:43;3.90;;;2.95;;
31680;SDS011;18281;51.364;9.566;2023-06-22T17:17:15;7.88;;;2.97;;
31680;SDS011;18281;51.364;9.566;2023-06-22T17:19:42;7.45;;;3.28;;
31680;SDS011;18281;51.364;9.566;2023-06-22T17:22:08;3.60;;;3.20;;
31680;SDS011;18281;51.364;9.566;2023-06-22T17:24:41;3.33;;;2.85;;
31680;SDS011;18281;51.364;9.566;2023-06-22T17:42:33;6.40;;;2.97;;
31680;SDS011;18281;51.364;9.566;2023-06-22T17:45:01;5.93;;;3.30;;
31680;SDS011;18281;51.364;9.566;2023-06-22T17:51:02;4.68;;;2.83;;
31680;SDS011;18281;51.364;9.566;2023-06-22T17:56:48;4.40;;;2.90;;
31680;SDS011;18281;51.364;9.566;2023-06-22T17:59:18;7.90;;;2.75;;
31680;SDS011;18281;51.364;9.566;2023-06-22T18:01:49;3.35;;;2.10;;
31680;SDS011;18281;51.364;9.566;2023-06-22T18:04:15;3.30;;;2.28;;
31680;SDS011;18281;51.364;9.566;2023-06-22T18:06:44;5.05;;;2.50;;
31680;SDS011;18281;51.364;9.566;2023-06-22T18:09:12;3.30;;;2.00;;
31680;SDS011;18281;51.364;9.566;2023-06-22T18:11:46;8.50;;;2.47;;
31680;SDS011;18281;51.364;9.566;2023-06-22T18:14:13;4.07;;;1.88;;
31680;SDS011;18281;51.364;9.566;2023-06-22T18:56:52;3.45;;;1.80;;
31680;SDS011;18281;51.364;9.566;2023-06-22T18:59:38;2.40;;;1.80;;
31680;SDS011;18281;51.364;9.566;2023-06-22T19:08:07;3.80;;;1.45;;
31680;SDS011;18281;51.364;9.566;2023-06-22T19:15:51;1.83;;;1.27;;
31680;SDS011;18281;51.364;9.566;2023-06-22T19:18:26;3.15;;;1.20;;
31680;SDS011;18281;51.364;9.566;2023-06-22T19:21:00;3.25;;;1.48;;
31680;SDS011;18281;51.364;9.566;2023-06-22T19:25:56;9.10;;;5.75;;
31680;SDS011;18281;51.364;9.566;2023-06-22T19:28:25;3.83;;;3.22;;
31680;SDS011;18281;51.364;9.566;2023-06-22T19:30:55;2.78;;;2.47;;
31680;SDS011;18281;51.364;9.566;2023-06-22T19:33:22;4.60;;;3.10;;
31680;SDS011;18281;51.364;9.566;2023-06-22T19:35:48;3.67;;;3.22;;
31680;SDS011;18281;51.364;9.566;2023-06-22T19:38:20;2.97;;;2.40;;
31680;SDS011;18281;51.364;9.566;2023-06-22T19:40:45;3.72;;;2.30;;
31680;SDS011;18281;51.364;9.566;2023-06-22T19:43:15;3.10;;;2.53;;
31680;SDS011;18281;51.364;9.566;2023-06-22T19:45:41;4.55;;;2.08;;
31680;SDS011;18281;51.364;9.566;2023-06-22T19:48:08;2.90;;;1.40;;
31680;SDS011;18281;51.364;9.566;2023-06-22T19:50:34;1.50;;;1.40;;
31680;SDS011;18281;51.364;9.566;2023-06-22T19:53:06;2.72;;;1.50;;
31680;SDS011;18281;51.364;9.566;2023-06-22T19:55:35;1.90;;;1.10;;
31680;SDS011;18281;51.364;9.566;2023-06-22T19:58:13;2.53;;;1.52;;
31680;SDS011;18281;51.364;9.566;2023-06-22T20:00:40;3.22;;;1.40;;
31680;SDS011;18281;51.364;9.566;2023-06-22T20:05:42;1.98;;;1.40;;
31680;SDS011;18281;51.364;9.566;2023-06-22T20:08:12;1.55;;;1.30;;
31680;SDS011;18281;51.364;9.566;2023-06-22T20:10:38;5.15;;;1.50;;
31680;SDS011;18281;51.364;9.566;2023-06-22T20:16:07;2.20;;;1.30;;
31680;SDS011;18281;51.364;9.566;2023-06-22T20:18:33;1.88;;;1.65;;
31680;SDS011;18281;51.364;9.566;2023-06-22T20:20:59;2.90;;;1.45;;
31680;SDS011;18281;51.364;9.566;2023-06-22T20:23:25;1.63;;;1.45;;
31680;SDS011;18281;51.364;9.566;2023-06-22T20:25:52;1.88;;;1.33;;
31680;SDS011;18281;51.364;9.566;2023-06-22T20:28:18;3.45;;;1.30;;
31680;SDS011;18281;51.364;9.566;2023-06-22T20:33:30;2.13;;;1.20;;
31680;SDS011;18281;51.364;9.566;2023-06-22T20:35:56;3.17;;;1.30;;
31680;SDS011;18281;51.364;9.566;2023-06-22T20:38:22;2.22;;;1.20;;
31680;SDS011;18281;51.364;9.566;2023-06-22T20:40:50;1.30;;;1.20;;
31680;SDS011;18281;51.364;9.566;2023-06-22T20:43:18;1.48;;;1.33;;
31680;SDS011;18281;51.364;9.566;2023-06-22T20:45:43;1.15;;;1.05;;
31680;SDS011;18281;51.364;9.566;2023-06-22T20:48:09;2.55;;;1.30;;
31680;SDS011;18281;51.364;9.566;2023-06-22T20:50:34;6.07;;;1.33;;
31680;SDS011;18281;51.364;9.566;2023-06-22T20:53:01;4.00;;;1.45;;
31680;SDS011;18281;51.364;9.566;2023-06-22T20:55:29;2.35;;;1.20;;
31680;SDS011;18281;51.364;9.566;2023-06-22T20:57:55;1.77;;;1.25;;
31680;SDS011;18281;51.364;9.566;2023-06-22T21:00:21;1.05;;;1.00;;
31680;SDS011;18281;51.364;9.566;2023-06-22T21:02:47;1.30;;;1.20;;
31680;SDS011;18281;51.364;9.566;2023-06-22T21:05:17;3.53;;;1.15;;
31680;SDS011;18281;51.364;9.566;2023-06-22T21:07:43;2.15;;;1.13;;
31680;SDS011;18281;51.364;9.566;2023-06-22T21:10:08;1.88;;;1.35;;
31680;SDS011;18281;51.364;9.566;2023-06-22T21:12:35;1.08;;;1.00;;
31680;SDS011;18281;51.364;9.566;2023-06-22T21:15:01;1.20;;;1.10;;
31680;SDS011;18281;51.364;9.566;2023-06-22T21:17:29;4.28;;;1.30;;
31680;SDS011;18281;51.364;9.566;2023-06-22T21:19:55;2.63;;;1.10;;
31680;SDS011;18281;51.364;9.566;2023-06-22T21:22:20;3.78;;;1.15;;
31680;SDS011;18281;51.364;9.566;2023-06-22T21:24:48;1.02;;;1.00;;